Latest Weather Observations for Central Arnhem Plateau

IDD60801

Issued at 9:05 am CST Wednesday 1 October 2014 (issued every 30 minutes, with the page automatically refreshed every 10 minutes)

About weather observations | Map of weather stations | Latest weather observations for NT | Other Formats
Station Details ID: 014909 Name: CENTRAL ARNHEM PLATEAU Lat: -13.33 Lon: 133.09 Height: 416.0 m
Data from the previous 72 hours. | See also: Recent months for locations in Northern Territory
Date/Time
CST
Temp
°C
App
Temp
°C
Dew
Point
Rel
Hum
%
Delta-T
°C
Wind Press
QNH
hPa
Press
MSL
hPa
Rain
since 9 am
mm
Dir
 
Spd
km/h
Gust
km/h
Spd
kts
Gust
kts
01/09:00am 26.4 22.5 12.1 41 8.4 ENE 24 32 13 17 1016.8 1014.1 0.0
01/08:30am 25.3 23.1 13.2 47 7.2 ENE 17 24 9 13 1016.7 1014.0 0.0
01/08:00am 22.7 21.6 14.3 59 5.0 E 13 20 7 11 1016.5 1013.8 0.0
01/07:30am 21.4 20.9 13.8 62 4.5 ESE 9 13 5 7 1016.1 1013.5 0.0
01/07:00am 20.5 19.5 13.5 64 4.1 E 11 15 6 8 1015.7 1013.1 0.0
01/06:30am 19.8 18.5 12.6 63 4.1 E 11 13 6 7 1015.4 1012.8 0.0
01/06:00am 20.1 18.8 11.1 56 5.0 ESE 9 13 5 7 1015.1 1012.5 0.0
01/05:30am 18.8 17.2 8.7 52 5.4 E 7 11 4 6 1014.8 1012.2 0.0
01/05:00am 21.5 19.8 9.7 47 6.5 SE 9 11 5 6 1014.4 1011.7 0.0
01/04:30am 21.9 20.3 10.1 47 6.5 SE 9 11 5 6 1014.1 1011.4 0.0
01/04:00am 22.1 21.0 10.6 48 6.4 E 7 11 4 6 1013.9 1011.2 0.0
01/03:30am 21.8 20.4 9.0 44 7.0 E 6 7 3 4 1014.1 1011.4 0.0
01/03:00am 22.7 20.7 8.8 41 7.6 E 9 15 5 8 1014.4 1011.7 0.0
01/02:30am 22.7 21.0 8.4 40 7.7 E 7 9 4 5 1014.6 1011.9 0.0
01/02:00am 23.8 21.8 8.6 38 8.3 E 9 13 5 7 1014.8 1012.2 0.0
01/01:30am 24.2 21.2 7.8 35 8.8 ESE 13 15 7 8 1015.2 1012.6 0.0
01/01:00am 24.9 22.2 7.5 33 9.4 E 11 15 6 8 1015.5 1012.9 0.0
01/12:30am 25.6 22.5 7.2 31 9.9 E 13 19 7 10 1015.8 1013.2 0.0
01/12:00am 26.2 22.3 7.3 30 10.2 E 17 26 9 14 1015.9 1013.3 0.0
 
Date/Time
CST
Temp
°C
App
Temp
°C
Dew
Point
Rel
Hum
%
Delta-T
°C
Wind Press
QNH
hPa
Press
MSL
hPa
Rain
since 9 am
mm
Dir
 
Spd
km/h
Gust
km/h
Spd
kts
Gust
kts
30/11:30pm 26.7 22.7 8.2 31 10.2 E 19 28 10 15 1015.9 1013.3 0.0
30/11:00pm 27.3 23.8 8.7 31 10.3 E 17 24 9 13 1016.0 1013.4 0.0
30/10:30pm 27.9 23.8 8.7 30 10.7 E 20 28 11 15 1015.8 1013.2 0.0
30/10:00pm 28.5 24.9 8.2 28 11.3 E 17 24 9 13 1015.5 1012.9 0.0
30/09:30pm 29.2 25.7 8.8 28 11.5 E 17 20 9 11 1015.2 1012.6 0.0
30/09:00pm 30.0 26.6 9.0 27 11.9 E 17 26 9 14 1014.8 1012.2 0.0
30/08:30pm 30.3 28.1 9.2 27 12.0 E 11 17 6 9 1014.4 1011.7 0.0
30/08:00pm 30.6 28.7 8.9 26 12.3 E 9 15 5 8 1014.1 1011.4 0.0
30/07:30pm 30.9 28.7 9.2 26 12.4 ENE 11 19 6 10 1013.5 1010.9 0.0
30/07:00pm 31.1 28.4 8.8 25 12.7 E 13 17 7 9 1013.2 1010.6 0.0
30/06:30pm 31.6 28.2 9.2 25 12.8 E 17 24 9 13 1012.8 1010.2 0.0
30/06:00pm 32.1 28.7 9.0 24 13.2 E 17 20 9 11 1012.4 1009.7 0.0
30/05:30pm 32.4 28.1 9.2 24 13.3 E 22 30 12 16 1012.1 1009.4 0.0
30/05:00pm 32.7 28.3 8.9 23 13.6 ESE 22 30 12 16 1012.0 1009.3 0.0
30/04:30pm 33.2 29.1 8.6 22 14.1 E 20 28 11 15 1011.9 1009.2 0.0
30/04:00pm 33.7 29.5 8.3 21 14.5 SE 20 33 11 18 1012.0 1009.3 0.0
30/03:30pm 33.9 29.8 7.8 20 14.8 ESE 19 32 10 17 1012.1 1009.4 0.0
30/03:00pm 33.3 29.4 7.3 20 14.6 E 17 30 9 16 1012.2 1009.5 0.0
30/02:30pm 33.8 29.3 8.4 21 14.5 E 22 37 12 20 1012.6 1009.9 0.0
30/02:00pm 32.8 28.2 8.3 22 13.9 ESE 22 32 12 17 1013.0 1010.4 0.0
30/01:30pm 32.5 28.8 9.3 24 13.4 SE 19 35 10 19 1013.4 1010.8 0.0
30/01:00pm 32.3 28.9 10.4 26 12.8 E 19 32 10 17 1014.0 1011.3 0.0
30/12:30pm 30.8 28.7 11.2 30 11.5 NNE 13 28 7 15 1014.7 1012.0 0.0
30/12:00pm 31.0 29.5 11.9 31 11.4 ESE 11 24 6 13 1015.4 1012.8 0.0
30/11:30am 29.8 27.1 11.8 33 10.6 ENE 17 32 9 17 1015.8 1013.2 0.0
30/11:00am 28.7 25.3 12.6 37 9.6 ENE 22 32 12 17 1016.5 1013.8 0.0
30/10:30am 27.8 25.9 14.1 43 8.3 ENE 17 28 9 15 1016.9 1014.2 0.0
30/10:00am 26.2 24.5 14.6 48 7.1 NE 17 24 9 13 1017.3 1014.7 0.0
30/09:30am 25.6 24.2 14.4 50 6.8 NE 15 22 8 12 1017.3 1014.7 0.0
30/09:00am 25.6 26.0 16.2 56 5.9 NE 9 15 5 8 1017.3 1014.7 0.0
30/08:30am 25.0 25.9 17.5 63 4.8 NE 9 13 5 7 1017.3 1014.7 0.0
30/08:00am 24.0 24.2 17.7 68 4.0 E 13 19 7 10 1017.1 1014.5 0.0
30/07:30am 23.6 24.6 17.8 70 3.7 ENE 9 13 5 7 1016.7 1014.0 0.0
30/07:00am 22.2 24.6 17.1 73 3.2 CALM 0 0 0 0 1016.3 1013.7 0.0
30/06:30am 21.9 24.2 16.8 73 3.2 CALM 0 0 0 0 1015.8 1013.2 0.0
30/06:00am 22.7 24.2 17.6 73 3.2 ENE 6 7 3 4 1015.7 1013.1 0.0
30/05:30am 22.8 24.1 17.5 72 3.3 NE 7 9 4 5 1015.5 1012.9 0.0
30/05:00am 23.1 24.6 17.6 71 3.5 NNE 6 7 3 4 1015.3 1012.7 0.0
30/04:30am 23.5 24.8 17.5 69 3.8 NE 7 11 4 6 1014.9 1012.3 0.0
30/04:00am 23.5 24.9 17.3 68 3.9 NNE 6 7 3 4 1014.9 1012.3 0.0
30/03:30am 22.9 25.3 16.9 69 3.7 CALM 0 0 0 0 1014.8 1012.2 0.0
30/03:00am 23.2 25.5 16.7 67 4.0 CALM 0 0 0 0 1014.7 1012.0 0.0
30/02:30am 23.6 24.3 17.1 67 4.1 ENE 9 13 5 7 1014.5 1011.8 0.0
30/02:00am 23.8 24.3 16.6 64 4.5 ENE 9 11 5 6 1014.8 1012.2 0.0
30/01:30am 24.1 24.9 16.4 62 4.8 ENE 7 9 4 5 1015.0 1012.4 0.0
30/01:00am 24.7 25.1 16.4 60 5.2 E 9 13 5 7 1015.2 1012.6 0.0
30/12:30am 24.7 25.0 15.9 58 5.4 NE 9 13 5 7 1015.2 1012.6 0.0
30/12:00am 25.1 24.1 15.7 56 5.8 NE 15 20 8 11 1015.1 1012.5 0.0
 
Date/Time
CST
Temp
°C
App
Temp
°C
Dew
Point
Rel
Hum
%
Delta-T
°C
Wind Press
QNH
hPa
Press
MSL
hPa
Rain
since 9 am
mm
Dir
 
Spd
km/h
Gust
km/h
Spd
kts
Gust
kts
29/11:30pm 25.6 24.5 15.3 53 6.3 NNE 15 20 8 11 1015.1 1012.5 0.0
29/11:00pm 25.7 25.7 15.1 52 6.5 N 9 13 5 7 1015.2 1012.6 0.0
29/10:30pm 26.6 26.4 14.7 48 7.3 NNW 9 17 5 9 1014.9 1012.3 0.0
29/10:00pm 26.7 24.5 9.5 34 9.7 NNW 11 17 6 9 1014.7 1012.0 0.0
29/09:30pm 27.6 25.1 6.4 26 11.4 E 9 11 5 6 1014.3 1011.6 0.0
29/09:00pm 28.1 25.6 5.0 23 12.1 E 7 13 4 7 1013.9 1011.2 0.0
29/08:30pm 28.9 26.3 4.4 21 12.8 E 7 9 4 5 1013.5 1010.9 0.0
29/08:00pm 28.7 26.0 3.5 20 12.9 ENE 7 11 4 6 1013.2 1010.6 0.0
29/07:30pm 30.5 27.4 3.5 18 14.0 E 9 11 5 6 1012.8 1010.2 0.0
29/07:00pm 31.4 28.1 2.6 16 14.8 E 9 11 5 6 1012.4 1009.7 0.0
29/06:30pm 32.1 28.5 3.1 16 15.1 E 11 15 6 8 1012.1 1009.4 0.0
29/06:00pm 32.8 29.2 2.8 15 15.6 E 11 17 6 9 1011.8 1009.1 0.0
29/05:30pm 33.3 30.1 3.2 15 15.8 E 9 17 5 9 1011.5 1008.8 0.0
29/05:00pm 33.1 29.1 3.0 15 15.7 SE 13 22 7 12 1011.2 1008.6 0.0
29/04:30pm 33.7 30.6 3.5 15 16.0 NE 9 17 5 9 1011.0 1008.4 0.0
29/04:00pm 33.8 29.9 3.6 15 16.0 ENE 13 20 7 11 1011.1 1008.5 0.0
29/03:30pm 33.1 28.9 3.9 16 15.5 ENE 15 22 8 12 1011.6 1008.9 0.0
29/03:00pm 32.8 27.8 3.7 16 15.4 ESE 19 28 10 15 1011.8 1009.1 0.0
29/02:30pm 33.8 29.9 5.4 17 15.5 ESE 15 28 8 15 1012.2 1009.5 0.0
29/02:00pm 32.2 28.9 6.4 20 14.2 ESE 13 20 7 11 1012.5 1009.8 0.0
29/01:30pm 31.6 28.0 6.6 21 13.7 NE 15 24 8 13 1013.1 1010.5 0.0
29/01:00pm 31.4 28.2 8.4 24 13.0 ENE 15 32 8 17 1013.9 1011.2 0.0
29/12:30pm 31.3 28.6 8.9 25 12.7 ENE 13 24 7 13 1014.5 1011.8 0.0
29/12:00pm 29.6 27.0 9.2 28 11.6 ENE 13 20 7 11 1015.0 1012.4 0.0
29/11:30am 29.9 27.1 9.9 29 11.5 ENE 15 26 8 14 1015.4 1012.8 0.0
29/11:00am 29.9 27.5 12.8 35 10.3 ENE 17 26 9 14 1015.9 1013.3 0.0
29/10:30am 28.3 26.0 13.0 39 9.2 NNE 17 26 9 14 1016.1 1013.5 0.0
29/10:00am 26.9 25.5 13.3 43 8.1 NE 13 22 7 12 1016.2 1013.6 0.0
29/09:30am 25.9 24.6 14.7 50 6.8 N 15 20 8 11 1016.5 1013.8 0.0
29/09:00am 25.4 25.7 16.0 56 5.8 N 9 15 5 8 1016.3 1013.7 0.0
29/08:30am 24.5 24.0 16.0 59 5.3 NNW 13 20 7 11 1016.2 1013.6 0.0
29/08:00am 23.4 22.7 15.5 61 4.8 NNW 13 20 7 11 1016.0 1013.4 0.0
29/07:30am 22.6 22.5 15.0 62 4.6 NW 9 11 5 6 1015.7 1013.1 0.0
29/07:00am 20.6 20.5 13.3 63 4.3 NNW 6 7 3 4 1015.2 1012.6 0.0
29/06:30am 18.9 18.1 11.7 63 4.0 NW 7 7 4 4 1014.8 1012.2 0.0
29/06:00am 19.2 18.5 11.5 61 4.3 NW 6 6 3 3 1014.4 1011.7 0.0
29/05:30am 19.6 18.9 11.4 59 4.6 NW 6 7 3 4 1014.0 1011.3 0.0
29/05:00am 20.1 19.2 11.3 57 4.9 NNW 7 9 4 5 1013.6 1011.0 0.0
29/04:30am 21.0 20.1 10.8 52 5.7 NW 6 7 3 4 1013.3 1010.7 0.0
29/04:00am 21.7 21.0 12.0 54 5.6 NW 7 9 4 5 1013.2 1010.6 0.0
29/03:30am 21.9 20.9 11.0 50 6.1 NNW 7 9 4 5 1013.4 1010.8 0.0
29/03:00am 21.8 20.4 9.7 46 6.7 N 7 9 4 5 1013.6 1011.0 0.0
29/02:30am 22.5 21.0 9.0 42 7.4 N 7 9 4 5 1013.7 1011.1 0.0
29/02:00am 22.9 21.3 8.6 40 7.8 N 7 11 4 6 1013.9 1011.2 0.0
29/01:30am 23.3 21.7 8.6 39 8.0 NNW 7 9 4 5 1014.1 1011.4 0.0
29/01:00am 23.5 22.0 9.1 40 7.9 NW 7 11 4 6 1014.4 1011.7 0.0
29/12:30am 23.5 22.5 10.2 43 7.4 N 6 7 3 4 1014.5 1011.8 0.0
29/12:00am 24.9 24.3 12.2 45 7.4 N 7 11 4 6 1014.8 1012.2 0.0
 
Date/Time
CST
Temp
°C
App
Temp
°C
Dew
Point
Rel
Hum
%
Delta-T
°C
Wind Press
QNH
hPa
Press
MSL
hPa
Rain
since 9 am
mm
Dir
 
Spd
km/h
Gust
km/h
Spd
kts
Gust
kts
28/11:30pm 24.1 23.0 8.5 37 8.5 N 4 6 2 3 1015.1 1012.5 0.0
28/11:00pm 25.0 23.8 4.7 27 10.4 CALM 0 6 0 3 1015.2 1012.6 0.0
28/10:30pm 25.2 21.3 1.3 21 11.5 ENE 11 15 6 8 1014.6 1011.9 0.0
28/10:00pm 27.1 23.7 -0.9 16 13.1 SE 7 9 4 5 1014.2 1011.5 0.0
28/09:30pm 26.9 23.6 -0.2 17 12.9 ESE 7 7 4 4 1014.0 1011.3 0.0
28/09:00pm 26.0 22.9 -0.1 18 12.3 E 6 7 3 4 1013.5 1010.9 0.0
28/08:30pm 29.1 25.6 -1.1 14 14.3 SSE 7 9 4 5 1013.1 1010.5 0.0
28/08:00pm 29.8 25.5 -1.5 13 14.8 SSE 11 15 6 8 1012.9 1010.3 0.0
28/07:30pm 28.7 25.9 -3.5 12 14.6 ESE 2 6 1 3 1012.5 1009.8 0.0
28/07:00pm 31.5 27.8 -2.5 11 16.0 ESE 7 9 4 5 1012.3 1009.6 0.0
28/06:30pm 32.4 28.8 -1.8 11 16.4 ESE 7 9 4 5 1012.0 1009.3 0.0
28/06:00pm 33.3 28.5 -2.4 10 17.1 ESE 13 17 7 9 1011.8 1009.1 0.0
28/05:30pm 33.9 29.0 -3.4 9 17.6 E 13 20 7 11 1011.6 1008.9 0.0
28/05:00pm 34.5 29.3 -2.9 9 17.9 ESE 15 20 8 11 1011.4 1008.7 0.0
28/04:30pm 34.6 29.8 -2.9 9 18.0 ESE 13 20 7 11 1011.4 1008.7 0.0
28/04:00pm 34.8 28.7 -2.7 9 18.0 SE 20 30 11 16 1011.5 1008.8 0.0
28/03:30pm 34.3 27.7 -3.1 9 17.8 SSE 22 32 12 17 1011.8 1009.1 0.0
28/03:00pm 34.5 29.8 -1.5 10 17.6 SE 13 24 7 13 1012.1 1009.4 0.0
28/02:30pm 34.4 29.7 -1.6 10 17.6 ENE 13 20 7 11 1012.5 1009.8 0.0
28/02:00pm 33.9 28.0 -2.0 10 17.4 S 19 24 10 13 1013.0 1010.4 0.0
28/01:30pm 33.5 29.7 -1.0 11 16.9 SE 9 20 5 11 1013.5 1010.9 0.0
28/01:00pm 33.0 27.6 -1.4 11 16.7 SSE 17 24 9 13 1014.2 1011.5 0.0
28/12:30pm 31.8 26.4 -1.1 12 15.9 S 17 28 9 15 1014.9 1012.3 0.0
28/12:00pm 32.2 27.0 0.3 13 15.8 ESE 17 24 9 13 1015.5 1012.9 0.0
28/11:30am 32.1 27.5 1.3 14 15.5 SE 15 22 8 12 1016.1 1013.5 0.0
28/11:00am 31.1 28.4 5.5 20 13.8 SSE 9 17 5 9 1016.7 1014.0 0.0
28/10:30am 30.3 26.7 4.9 20 13.5 E 13 20 7 11 1017.0 1014.4 0.0
28/10:00am 29.6 26.9 5.6 22 12.8 E 9 19 5 10 1017.3 1014.7 0.0
28/09:30am 28.0 26.5 9.3 31 10.5 SSW 7 11 4 6 1017.4 1014.8 0.0

Other Formats:

Comma delimited format used in spreadsheet applications
http://www.bom.gov.au/fwo/IDD60801/IDD60801.94141.axf

JavaScript Object Notation format (JSON) in row-major order
http://www.bom.gov.au/fwo/IDD60801/IDD60801.94141.json